Dunakeszi, Hungary

2:10 AM CEST on October 01, 2016 (GMT +0200)
| | Change Station

Elev -9999 ft 0.00 °N, 0.00 °E | Updated

Partly Cloudy
Partly Cloudy
51 °F
Feels Like 51 °F
N
3
Wind Variable Wind from SSW
Gusts mph

Today
High -- | Low -- °F
--% Chance of Precip.
Yesterday
High -- | Low -- °F
Precip. -- in
Pressure 30.04 in
Visibility 6.2 miles
Clouds Few 4300 ft
Dew Point 51 °F
Humidity 98%
Rainfall --
Snow Depth Not available.
6:42 AM 6:22 PM
New Moon, 0% visible
METAR LHBP 010000Z 12004KT 090V160 9999 FEW043 12/10 Q1017 NOSIG
Pressure 30.04 in
Visibility 6.2 miles
Clouds Few 4300 ft
Dew Point 51 °F
Humidity 98%
Rainfall --
Snow Depth Not available.
6:42 AM 6:22 PM
New Moon, 0% visible
METAR LHBP 010000Z 12004KT 090V160 9999 FEW043 12/10 Q1017 NOSIG

10-Day Weather Forecast

×

Almanac

Astronomy

Oct. 01, 2016 Rise Set
Actual Time
Civil Twilight
Nautical Twilight
Astronomical Twilight
Moon
Length of Visible Light
Length of Day
Tomorrow will be .
, % of the Moon is Illuminated

Today's Extremes

Country Highs Country Lows

Community

WunderPhotos

Upload Photos

1,942,829 photos uploaded!

WunderBlog® & News

Nearby

Air Quality

  Air Quality AQ Index Pollutant
Not available.

Snow Depth

Station Depth Elevation

Earthquake Activity

City Distance Mag. Time & Date
Minimum magnitude displayed is 2.5.

Coastal Water Temperatures

Place Temperature

Stations

Nearby Weather Stations

Station Location Temp. Windchill Dew Point Humidity Wind Precip. Elev Updated Type